createdAt,value
2018-02-12T00:00:51.074Z,5.90
2018-02-12T00:03:17.366Z,8.03
2018-02-12T00:05:43.627Z,7.27
2018-02-12T00:08:10.682Z,12.00
2018-02-12T00:10:36.945Z,7.90
2018-02-12T00:13:03.934Z,7.03
2018-02-12T00:15:30.217Z,9.20
2018-02-12T00:17:57.210Z,10.20
2018-02-12T00:20:23.499Z,8.73
2018-02-12T00:22:49.765Z,10.37
2018-02-12T00:25:16.062Z,11.63
2018-02-12T00:27:42.342Z,9.10
2018-02-12T00:30:08.625Z,9.80
2018-02-12T00:32:34.911Z,7.60
2018-02-12T00:35:01.951Z,8.10
2018-02-12T00:37:28.194Z,8.70
2018-02-12T00:39:55.207Z,7.30
2018-02-12T00:42:21.451Z,6.97
2018-02-12T00:44:47.721Z,8.20
2018-02-12T00:47:14.005Z,5.63
2018-02-12T00:49:40.266Z,9.47
2018-02-12T00:52:07.279Z,7.13
2018-02-12T00:54:33.527Z,7.70
2018-02-12T00:56:59.791Z,5.40
2018-02-12T00:59:26.037Z,5.37
2018-02-12T01:01:52.323Z,10.23
2018-02-12T01:04:19.394Z,6.73
2018-02-12T01:06:45.670Z,8.87
2018-02-12T01:09:11.923Z,7.00
2018-02-12T01:11:38.958Z,11.93
2018-02-12T01:14:05.258Z,7.17
2018-02-12T01:16:31.555Z,9.83
2018-02-12T01:18:57.817Z,7.60
2018-02-12T01:21:24.089Z,8.40
2018-02-12T01:23:50.346Z,7.30
2018-02-12T01:26:16.631Z,9.40
2018-02-12T01:28:42.894Z,7.30
2018-02-12T01:31:09.190Z,6.63
2018-02-12T01:33:35.443Z,7.10
2018-02-12T01:36:02.485Z,6.77
2018-02-12T01:38:29.491Z,8.23
2018-02-12T01:40:55.763Z,6.43
2018-02-12T01:43:22.758Z,7.63
2018-02-12T01:45:49.026Z,9.50
2018-02-12T01:48:15.286Z,10.77
2018-02-12T01:50:41.550Z,9.43
2018-02-12T01:53:07.823Z,10.10
2018-02-12T01:55:34.833Z,7.17
2018-02-12T01:58:01.099Z,13.50
2018-02-12T02:00:28.102Z,8.80
2018-02-12T02:02:54.376Z,10.30
2018-02-12T02:05:21.354Z,10.03
2018-02-12T02:07:47.927Z,10.80
2018-02-12T02:10:14.645Z,9.63
2018-02-12T02:12:40.914Z,9.83
2018-02-12T02:15:07.916Z,9.40
2018-02-12T02:17:34.186Z,10.17
2018-02-12T02:20:00.444Z,12.07
2018-02-12T02:22:26.738Z,9.90
2018-02-12T02:24:53.012Z,10.73
2018-02-12T02:27:19.303Z,12.43
2018-02-12T02:29:45.574Z,12.13
2018-02-12T02:32:11.864Z,12.20
2018-02-12T02:34:38.164Z,12.53
2018-02-12T02:37:04.425Z,10.30
2018-02-12T02:39:31.448Z,10.50
2018-02-12T02:41:57.699Z,10.93
2018-02-12T02:44:24.710Z,10.97
2018-02-12T02:46:50.977Z,12.70
2018-02-12T02:49:17.985Z,14.83
2018-02-12T02:51:44.249Z,14.83
2018-02-12T02:54:10.516Z,11.23
2018-02-12T02:56:36.795Z,12.17
2018-02-12T02:59:03.071Z,11.87
2018-02-12T03:01:29.333Z,13.53
2018-02-12T03:03:55.596Z,14.43
2018-02-12T03:06:22.754Z,14.43
2018-02-12T03:08:49.075Z,15.20
2018-02-12T03:11:16.136Z,12.20
2018-02-12T03:13:42.453Z,16.70
2018-02-12T03:16:09.470Z,15.10
2018-02-12T03:18:35.752Z,12.83
2018-02-12T03:21:02.750Z,15.27
2018-02-12T03:23:29.018Z,13.50
2018-02-12T03:25:56.012Z,12.70
2018-02-12T03:28:22.268Z,14.53
2018-02-12T03:30:49.302Z,11.73
2018-02-12T03:33:15.548Z,14.03
2018-02-12T03:35:41.820Z,15.03
2018-02-12T03:38:08.085Z,15.07
2018-02-12T03:40:34.349Z,14.17
2018-02-12T03:43:01.340Z,16.90
2018-02-12T03:45:27.657Z,12.40
2018-02-12T03:47:53.922Z,13.77
2018-02-12T03:50:20.195Z,14.10
2018-02-12T03:52:46.471Z,12.00
2018-02-12T03:55:12.750Z,12.40
2018-02-12T03:57:39.014Z,11.33
2018-02-12T04:00:05.307Z,15.07
2018-02-12T04:02:31.583Z,11.23
2018-02-12T04:04:57.848Z,12.03
2018-02-12T04:07:24.850Z,12.57
2018-02-12T04:09:51.184Z,11.27
2018-02-12T04:12:17.455Z,16.17
2018-02-12T04:14:44.495Z,15.30
2018-02-12T04:17:10.743Z,12.93
2018-02-12T04:19:37.742Z,12.77
2018-02-12T04:22:04.010Z,12.03
2018-02-12T04:24:31.011Z,12.40
2018-02-12T04:26:57.273Z,14.77
2018-02-12T04:29:23.519Z,12.33
2018-02-12T04:31:50.528Z,12.87
2018-02-12T04:34:16.797Z,11.37
2018-02-12T04:36:43.803Z,13.77
2018-02-12T04:39:10.070Z,16.17
2018-02-12T04:41:37.074Z,11.07
2018-02-12T04:44:03.329Z,12.40
2018-02-12T04:46:30.356Z,16.80
2018-02-12T04:48:56.604Z,11.40
2018-02-12T04:51:22.896Z,11.40
2018-02-12T04:53:49.139Z,11.40
2018-02-12T04:56:15.395Z,12.30
2018-02-12T04:58:41.666Z,13.50
2018-02-12T05:01:07.946Z,12.57
2018-02-12T05:03:34.197Z,9.13
2018-02-12T05:06:01.205Z,9.90
2018-02-12T05:08:27.467Z,9.87
2018-02-12T05:10:54.470Z,13.50
2018-02-12T05:13:20.740Z,13.07
2018-02-12T05:15:47.743Z,13.80
2018-02-12T05:18:14.030Z,9.87
2018-02-12T05:20:40.288Z,10.40
2018-02-12T05:23:06.559Z,10.87
2018-02-12T05:25:34.296Z,11.83
2018-02-12T05:28:00.563Z,10.10
2018-02-12T05:30:27.574Z,17.20
2018-02-12T05:32:53.857Z,11.83
2018-02-12T05:35:20.131Z,9.83
2018-02-12T05:37:46.448Z,9.60
2018-02-12T05:40:12.713Z,11.17
2018-02-12T05:42:38.979Z,11.90
2018-02-12T05:45:05.259Z,9.10
2018-02-12T05:47:31.527Z,12.13
2018-02-12T05:49:58.524Z,10.03
2018-02-12T05:52:24.796Z,8.80
2018-02-12T05:54:51.797Z,9.10
2018-02-12T05:57:18.070Z,9.43
2018-02-12T05:59:45.064Z,12.37
2018-02-12T06:02:11.337Z,11.63
2018-02-12T06:04:38.352Z,10.20
2018-02-12T06:07:04.616Z,7.77
2018-02-12T06:09:30.933Z,10.87
2018-02-12T06:11:57.959Z,11.40
2018-02-12T06:14:24.236Z,9.37
2018-02-12T06:16:50.507Z,8.00
2018-02-12T06:19:16.774Z,8.80
2018-02-12T06:21:43.779Z,12.47
2018-02-12T06:24:10.056Z,9.77
2018-02-12T06:26:37.052Z,13.87
2018-02-12T06:29:03.328Z,8.97
2018-02-12T06:31:30.340Z,10.07
2018-02-12T06:33:56.643Z,10.30
2018-02-12T06:36:22.892Z,9.00
2018-02-12T06:38:49.163Z,12.40
2018-02-12T06:41:16.173Z,8.03
2018-02-12T06:43:42.437Z,10.20
2018-02-12T06:46:09.452Z,8.60
2018-02-12T06:48:35.742Z,10.03
2018-02-12T06:51:02.011Z,8.37
2018-02-12T06:53:28.278Z,10.40
2018-02-12T06:55:54.544Z,9.63
2018-02-12T06:58:20.823Z,7.67
2018-02-12T07:00:47.905Z,10.57
2018-02-12T07:03:14.197Z,9.67
2018-02-12T07:05:41.247Z,10.80
2018-02-12T07:08:08.233Z,12.70
2018-02-12T07:10:34.505Z,13.10
2018-02-12T07:13:00.738Z,8.87
2018-02-12T07:15:27.006Z,7.80
2018-02-12T07:17:53.256Z,8.70
2018-02-12T07:20:19.516Z,9.27
2018-02-12T07:22:47.252Z,10.67
2018-02-12T07:25:13.526Z,11.67
2018-02-12T07:27:40.514Z,11.87
2018-02-12T07:30:06.796Z,8.80
2018-02-12T07:32:33.819Z,9.23
2018-02-12T07:35:00.076Z,9.93
2018-02-12T07:37:27.109Z,10.03
2018-02-12T07:39:53.363Z,10.30
2018-02-12T07:42:20.392Z,12.30
2018-02-12T07:44:46.646Z,10.60
2018-02-12T07:47:13.655Z,14.03
2018-02-12T07:49:40.666Z,13.57
2018-02-12T07:52:06.943Z,12.93
2018-02-12T07:54:33.198Z,9.27
2018-02-12T07:56:59.471Z,9.67
2018-02-12T07:59:25.739Z,14.20
2018-02-12T08:01:52.759Z,13.30
2018-02-12T08:04:19.014Z,10.83
2018-02-12T08:06:46.035Z,8.93
2018-02-12T08:09:12.290Z,11.17
2018-02-12T08:11:39.285Z,10.43
2018-02-12T08:14:05.530Z,13.03
2018-02-12T08:16:31.821Z,8.93
2018-02-12T08:18:58.092Z,10.07
2018-02-12T08:21:24.369Z,9.17
2018-02-12T08:23:50.618Z,11.93
2018-02-12T08:26:16.960Z,7.70
2018-02-12T08:28:43.227Z,9.23
2018-02-12T08:31:09.500Z,10.00
2018-02-12T08:33:35.774Z,12.30
2018-02-12T08:36:02.026Z,12.37
2018-02-12T08:38:29.040Z,10.67
2018-02-12T08:40:55.295Z,11.50
2018-02-12T08:43:22.300Z,11.80
2018-02-12T08:45:48.575Z,11.20
2018-02-12T08:48:15.796Z,16.07
2018-02-12T08:50:48.974Z,11.40
2018-02-12T08:53:15.242Z,11.00
2018-02-12T08:55:42.242Z,13.93
2018-02-12T08:58:08.528Z,11.20
2018-02-12T09:00:35.518Z,14.60
2018-02-12T09:03:01.810Z,11.70
2018-02-12T09:05:28.086Z,8.90
2018-02-12T09:07:54.360Z,12.13
2018-02-12T09:10:20.631Z,9.60
2018-02-12T09:12:46.926Z,9.60
2018-02-12T09:15:13.215Z,9.67
2018-02-12T09:17:39.495Z,9.63
2018-02-12T09:20:05.763Z,8.73
2018-02-12T09:22:32.058Z,9.67
2018-02-12T09:24:58.318Z,9.37
2018-02-12T09:27:24.601Z,11.03
2018-02-12T09:29:51.623Z,11.27
2018-02-12T09:32:17.923Z,9.67
2018-02-12T09:34:44.203Z,9.30
2018-02-12T09:37:10.480Z,9.43
2018-02-12T09:39:36.788Z,10.03
2018-02-12T09:42:03.039Z,9.97
2018-02-12T09:44:29.324Z,12.90
2018-02-12T09:46:55.603Z,9.03
2018-02-12T09:49:21.902Z,8.20
2018-02-12T09:51:48.195Z,9.73
2018-02-12T09:54:15.224Z,8.33
2018-02-12T09:56:41.487Z,8.40
2018-02-12T09:59:08.479Z,11.70
2018-02-12T10:01:34.843Z,12.77
2018-02-12T10:04:01.860Z,13.13
2018-02-12T10:06:28.135Z,13.60
2018-02-12T10:08:54.402Z,9.70
2018-02-12T10:11:20.696Z,11.77
2018-02-12T10:13:46.942Z,12.70
2018-02-12T10:16:13.217Z,10.53
2018-02-12T10:18:39.475Z,13.20
2018-02-12T10:21:06.470Z,10.10
2018-02-12T10:23:32.738Z,16.60
2018-02-12T10:25:59.744Z,14.23
2018-02-12T10:28:26.012Z,10.00
2018-02-12T10:30:53.037Z,11.07
2018-02-12T10:33:19.296Z,12.27
2018-02-12T10:35:46.343Z,15.67
2018-02-12T10:38:13.353Z,10.60
2018-02-12T10:40:39.627Z,11.10
2018-02-12T10:43:06.696Z,11.03
2018-02-12T10:45:32.959Z,13.40
2018-02-12T10:47:59.243Z,11.23
2018-02-12T10:50:25.488Z,10.43
2018-02-12T10:52:51.755Z,11.87
2018-02-12T10:55:18.002Z,9.17
2018-02-12T10:57:44.277Z,7.73
2018-02-12T11:00:10.556Z,10.83
2018-02-12T11:02:37.651Z,10.50
2018-02-12T11:05:03.918Z,9.50
2018-02-12T11:07:30.197Z,10.47
2018-02-12T11:09:56.455Z,9.33
2018-02-12T11:12:22.734Z,9.00
2018-02-12T11:14:49.765Z,10.40
2018-02-12T11:17:16.052Z,11.13
2018-02-12T11:19:42.306Z,10.03
2018-02-12T11:22:08.614Z,10.40
2018-02-12T11:24:34.889Z,7.73
2018-02-12T11:27:01.933Z,9.13
2018-02-12T11:29:28.941Z,9.53
2018-02-12T11:31:55.199Z,8.27
2018-02-12T11:34:22.980Z,12.00
2018-02-12T11:36:50.056Z,7.57
2018-02-12T11:39:16.328Z,10.20
2018-02-12T11:41:42.583Z,10.40
2018-02-12T11:44:09.651Z,8.20
2018-02-12T11:46:35.916Z,10.17
2018-02-12T11:49:02.222Z,12.40
2018-02-12T11:51:28.473Z,13.07
2018-02-12T11:53:54.738Z,13.80
2018-02-12T11:56:21.006Z,9.00
2018-02-12T11:58:47.280Z,9.80
2018-02-12T12:01:13.526Z,11.73
2018-02-12T12:03:40.540Z,14.10
2018-02-12T12:06:07.136Z,10.60
2018-02-12T12:08:33.395Z,8.93
2018-02-12T12:10:59.649Z,11.27
2018-02-12T12:13:25.908Z,10.17
2018-02-12T12:15:52.223Z,11.10
2018-02-12T12:18:18.458Z,10.60
2018-02-12T12:20:45.459Z,9.67
2018-02-12T12:23:11.738Z,8.03
2018-02-12T12:25:38.012Z,10.70
2018-02-12T12:28:04.291Z,9.63
2018-02-12T12:30:31.310Z,8.73
2018-02-12T12:32:57.580Z,10.33
2018-02-12T12:35:23.969Z,9.17
2018-02-12T12:37:50.200Z,13.13
2018-02-12T12:40:16.524Z,13.43
2018-02-12T12:42:42.791Z,10.07
2018-02-12T12:45:09.801Z,8.50
2018-02-12T12:47:36.050Z,10.30
2018-02-12T12:50:03.818Z,6.20
2018-02-12T12:52:30.848Z,10.73
2018-02-12T12:54:57.880Z,11.10
2018-02-12T12:57:24.147Z,9.53
2018-02-12T12:59:51.150Z,9.53
2018-02-12T13:02:17.402Z,8.90
2018-02-12T13:04:43.676Z,10.43
2018-02-12T13:07:09.946Z,13.57
2018-02-12T13:09:36.226Z,10.50
2018-02-12T13:12:03.215Z,6.70
2018-02-12T13:14:29.464Z,9.37
2018-02-12T13:16:55.714Z,11.47
2018-02-12T13:19:22.718Z,7.10
2018-02-12T13:21:48.988Z,7.07
2018-02-12T13:24:16.084Z,7.43
2018-02-12T13:26:42.351Z,9.07
2018-02-12T13:29:08.612Z,10.83
2018-02-12T13:31:34.895Z,9.70
2018-02-12T13:34:01.164Z,8.07
2018-02-12T13:36:27.453Z,7.10
2018-02-12T13:38:53.710Z,7.50
2018-02-12T13:41:20.728Z,9.00
2018-02-12T13:43:47.056Z,12.30
2018-02-12T13:46:13.330Z,6.80
2018-02-12T13:48:39.587Z,7.40
2018-02-12T13:51:05.856Z,7.80
2018-02-12T13:53:32.890Z,6.63
2018-02-12T13:55:59.196Z,8.50
2018-02-12T13:58:25.455Z,10.40
2018-02-12T14:00:51.739Z,9.80
2018-02-12T14:03:17.992Z,6.93
2018-02-12T14:05:45.035Z,7.43
2018-02-12T14:08:11.319Z,8.27
2018-02-12T14:10:38.360Z,8.00
2018-02-12T14:13:05.362Z,7.63
2018-02-12T14:15:31.641Z,7.00
2018-02-12T14:17:58.628Z,8.40
2018-02-12T14:20:24.899Z,7.90
2018-02-12T14:22:51.158Z,10.37
2018-02-12T14:25:17.426Z,5.73
2018-02-12T14:27:43.680Z,10.10
2018-02-12T14:30:09.928Z,16.20
2018-02-12T14:32:36.936Z,8.73
2018-02-12T14:35:03.198Z,7.40
2018-02-12T14:37:29.470Z,8.20
2018-02-12T14:39:55.710Z,7.23
2018-02-12T14:42:21.967Z,9.23
2018-02-12T14:44:48.218Z,9.90
2018-02-12T14:47:15.278Z,6.10
2018-02-12T14:49:41.590Z,7.10
2018-02-12T14:52:08.645Z,6.80
2018-02-12T14:54:34.922Z,9.93
2018-02-12T14:57:01.196Z,9.87
2018-02-12T14:59:27.519Z,10.30
2018-02-12T15:01:54.626Z,6.20
2018-02-12T15:04:20.912Z,4.37
2018-02-12T15:06:47.923Z,8.70
2018-02-12T15:09:14.197Z,4.87
2018-02-12T15:11:40.455Z,4.80
2018-02-12T15:14:06.749Z,6.63
2018-02-12T15:16:33.757Z,5.13
2018-02-12T15:19:00.032Z,3.30
2018-02-12T15:21:26.300Z,3.53
2018-02-12T15:23:52.561Z,6.20
2018-02-12T15:26:19.569Z,4.53
2018-02-12T15:28:45.835Z,6.87
2018-02-12T15:31:12.870Z,5.53
2018-02-12T15:33:39.894Z,5.67
2018-02-12T15:36:06.150Z,6.40
2018-02-12T15:38:33.185Z,5.00
2018-02-12T15:40:59.594Z,5.77
2018-02-12T15:43:26.026Z,5.13
2018-02-12T15:45:52.291Z,4.70
2018-02-12T15:48:18.603Z,2.07
2018-02-12T15:50:44.886Z,5.87
2018-02-12T15:53:11.180Z,4.83
2018-02-12T15:55:38.173Z,5.30
2018-02-12T15:58:04.467Z,7.37
2018-02-12T16:00:31.480Z,4.90
2018-02-12T16:02:57.808Z,5.30
2018-02-12T16:05:24.079Z,3.43
2018-02-12T16:07:51.095Z,4.03
2018-02-12T16:10:17.382Z,4.63
2018-02-12T16:12:43.643Z,6.87
2018-02-12T16:15:09.933Z,6.80
2018-02-12T16:17:36.194Z,5.67
2018-02-12T16:20:02.488Z,6.27
2018-02-12T16:22:28.761Z,6.90
2018-02-12T16:24:55.043Z,6.40
2018-02-12T16:27:21.319Z,5.67
2018-02-12T16:29:47.587Z,6.20
2018-02-12T16:32:14.592Z,6.10
2018-02-12T16:34:40.920Z,6.40
2018-02-12T16:37:07.216Z,6.40
2018-02-12T16:39:33.520Z,5.77
2018-02-12T16:42:00.542Z,7.13
2018-02-12T16:44:26.810Z,7.53
2018-02-12T16:46:53.066Z,6.50
2018-02-12T16:49:19.358Z,5.63
2018-02-12T16:51:46.352Z,6.80
2018-02-12T16:54:12.637Z,4.47
2018-02-12T16:56:38.933Z,3.30
2018-02-12T16:59:05.217Z,6.93
2018-02-12T17:01:31.535Z,5.90
2018-02-12T17:03:57.855Z,8.37
2018-02-12T17:06:24.862Z,6.13
2018-02-12T17:08:51.112Z,6.13
2018-02-12T17:11:17.469Z,5.47
2018-02-12T17:13:43.733Z,4.80
2018-02-12T17:16:10.031Z,6.00
2018-02-12T17:18:36.287Z,7.20
2018-02-12T17:21:02.579Z,10.23
2018-02-12T17:23:28.845Z,5.60
2018-02-12T17:25:55.094Z,8.07
2018-02-12T17:28:21.342Z,9.13
2018-02-12T17:30:47.615Z,4.40
2018-02-12T17:33:13.865Z,6.00
2018-02-12T17:35:40.139Z,3.63
2018-02-12T17:38:06.696Z,2.80
2018-02-12T17:40:33.692Z,5.40
2018-02-12T17:42:59.945Z,7.27
2018-02-12T17:45:26.981Z,4.80
2018-02-12T17:47:54.007Z,3.30
2018-02-12T17:50:20.289Z,7.80
2018-02-12T17:52:46.612Z,3.63
2018-02-12T17:55:12.898Z,3.97
2018-02-12T17:57:39.160Z,4.37
2018-02-12T18:00:06.218Z,5.40
2018-02-12T18:02:32.504Z,6.80
2018-02-12T18:04:58.787Z,7.07
2018-02-12T18:07:25.056Z,5.33
2018-02-12T18:09:51.332Z,6.10
2018-02-12T18:12:18.344Z,6.53
2018-02-12T18:14:44.622Z,7.40
2018-02-12T18:17:11.838Z,8.60
2018-02-12T18:19:38.871Z,6.63
2018-02-12T18:22:05.184Z,10.17
2018-02-12T18:24:31.608Z,10.07
2018-02-12T18:26:57.902Z,8.73
2018-02-12T18:29:24.887Z,8.33
2018-02-12T18:31:51.318Z,10.30
2018-02-12T18:34:17.630Z,12.43
2018-02-12T18:36:43.899Z,8.13
2018-02-12T18:39:10.357Z,8.67
2018-02-12T18:41:37.382Z,7.10
2018-02-12T18:44:03.655Z,7.07
2018-02-12T18:46:29.927Z,7.87
2018-02-12T18:48:56.196Z,4.53
2018-02-12T18:51:23.196Z,6.20
2018-02-12T18:53:49.471Z,5.97
2018-02-12T18:56:16.472Z,5.93
2018-02-12T18:58:42.741Z,4.53
2018-02-12T19:01:09.743Z,5.87
2018-02-12T19:03:36.025Z,7.20
2018-02-12T19:06:02.323Z,4.67
2018-02-12T19:08:28.607Z,4.23
2018-02-12T19:10:54.863Z,3.43
2018-02-12T19:13:21.150Z,3.70
2018-02-12T19:15:47.420Z,4.50
2018-02-12T19:18:13.686Z,5.40
2018-02-12T19:20:40.697Z,3.63
2018-02-12T19:23:06.972Z,5.77
2018-02-12T19:25:33.989Z,3.47
2018-02-12T19:28:00.256Z,3.83
2018-02-12T19:30:26.524Z,5.30
2018-02-12T19:32:52.816Z,7.37
2018-02-12T19:35:19.062Z,6.13
2018-02-12T19:37:45.333Z,4.40
2018-02-12T19:40:12.373Z,4.87
2018-02-12T19:42:38.667Z,3.53
2018-02-12T19:45:04.953Z,5.93
2018-02-12T19:47:31.266Z,5.30
2018-02-12T19:49:57.573Z,10.73
2018-02-12T19:52:23.849Z,6.13
2018-02-12T19:54:51.124Z,6.70
2018-02-12T19:57:17.384Z,7.23
2018-02-12T19:59:43.642Z,7.17
2018-02-12T20:02:09.914Z,5.37
2018-02-12T20:04:36.229Z,5.80
2018-02-12T20:07:03.229Z,4.00
2018-02-12T20:09:29.518Z,4.13
2018-02-12T20:11:55.813Z,3.47
2018-02-12T20:14:22.846Z,2.63
2018-02-12T20:16:49.109Z,6.27
2018-02-12T20:19:16.285Z,4.50
2018-02-12T20:21:42.531Z,4.23
2018-02-12T20:24:08.810Z,5.90
2018-02-12T20:26:35.829Z,7.17
2018-02-12T20:29:02.111Z,5.20
2018-02-12T20:31:28.375Z,4.93
2018-02-12T20:33:54.659Z,5.23
2018-02-12T20:36:20.948Z,5.60
2018-02-12T20:38:47.368Z,8.43
2018-02-12T20:41:13.643Z,8.03
2018-02-12T20:43:40.633Z,10.23
2018-02-12T20:46:07.003Z,8.40
2018-02-12T20:48:34.040Z,11.40
2018-02-12T20:51:00.351Z,9.10
2018-02-12T20:53:26.621Z,8.80
2018-02-12T20:55:53.095Z,10.00
2018-02-12T20:58:19.356Z,7.47
2018-02-12T21:00:45.711Z,8.10
2018-02-12T21:03:11.993Z,6.60
2018-02-12T21:05:38.284Z,8.77
2018-02-12T21:08:04.647Z,7.93
2018-02-12T21:10:30.935Z,6.20
2018-02-12T21:12:57.991Z,11.07
2018-02-12T21:15:24.280Z,8.37
2018-02-12T21:17:50.557Z,7.07
2018-02-12T21:20:16.816Z,8.20
2018-02-12T21:22:43.099Z,11.10
2018-02-12T21:25:09.388Z,8.17
2018-02-12T21:27:35.658Z,7.60
2018-02-12T21:30:02.707Z,8.77
2018-02-12T21:32:29.707Z,6.60
2018-02-12T21:34:55.989Z,7.57
2018-02-12T21:37:22.269Z,10.03
2018-02-12T21:39:49.302Z,7.63
2018-02-12T21:42:15.597Z,10.30
2018-02-12T21:44:41.865Z,6.93
2018-02-12T21:47:08.186Z,6.67
2018-02-12T21:49:34.440Z,10.10
2018-02-12T21:52:00.712Z,9.80
2018-02-12T21:54:26.976Z,9.93
2018-02-12T21:56:53.245Z,10.40
2018-02-12T21:59:20.255Z,8.70
2018-02-12T22:01:46.516Z,10.77
2018-02-12T22:04:12.795Z,9.23
2018-02-12T22:06:39.186Z,9.70
2018-02-12T22:09:05.544Z,10.30
2018-02-12T22:11:31.796Z,12.23
2018-02-12T22:13:58.075Z,10.37
2018-02-12T22:16:25.083Z,10.70
2018-02-12T22:18:52.161Z,10.10
2018-02-12T22:21:19.171Z,10.77
2018-02-12T22:23:45.435Z,10.60
2018-02-12T22:26:11.694Z,9.23
2018-02-12T22:28:37.973Z,9.33
2018-02-12T22:31:04.258Z,8.10
2018-02-12T22:33:30.522Z,10.67
2018-02-12T22:35:56.789Z,8.60
2018-02-12T22:38:23.799Z,11.43
2018-02-12T22:40:50.080Z,9.13
2018-02-12T22:43:17.067Z,8.83
2018-02-12T22:45:43.360Z,10.70
2018-02-12T22:48:09.646Z,7.90
2018-02-12T22:50:35.934Z,10.17
2018-02-12T22:53:02.177Z,7.27
2018-02-12T22:55:28.464Z,9.27
2018-02-12T22:57:55.477Z,9.10
2018-02-12T23:00:21.761Z,7.93
2018-02-12T23:02:48.042Z,6.80
2018-02-12T23:05:14.315Z,7.07
2018-02-12T23:07:40.576Z,6.40
2018-02-12T23:10:06.848Z,7.90
2018-02-12T23:12:33.844Z,6.17
2018-02-12T23:15:00.117Z,7.57
2018-02-12T23:17:27.128Z,7.83
2018-02-12T23:19:53.375Z,15.00
2018-02-12T23:22:19.651Z,8.37
2018-02-12T23:24:45.928Z,8.10
2018-02-12T23:27:12.182Z,7.63
2018-02-12T23:29:39.187Z,8.47
2018-02-12T23:32:05.489Z,6.87
2018-02-12T23:34:31.740Z,6.70
2018-02-12T23:36:58.002Z,5.87
2018-02-12T23:39:24.271Z,8.27
2018-02-12T23:41:50.543Z,8.50
2018-02-12T23:44:16.799Z,11.63
2018-02-12T23:46:43.809Z,5.57
2018-02-12T23:49:10.071Z,7.77
2018-02-12T23:51:36.334Z,6.90
2018-02-12T23:54:02.612Z,6.80
2018-02-12T23:56:28.915Z,6.10
2018-02-12T23:58:55.175Z,6.57
